sensor_id;sensor_type;location;lat;lon;timestamp;temperature;humidity
42031;DHT22;27709;52.036;5.906;2022-08-19T00:01:07;18.00;98.20
42031;DHT22;27709;52.036;5.906;2022-08-19T00:03:34;18.00;98.30
42031;DHT22;27709;52.036;5.906;2022-08-19T00:05:59;18.00;98.40
42031;DHT22;27709;52.036;5.906;2022-08-19T00:08:25;17.90;98.30
42031;DHT22;27709;52.036;5.906;2022-08-19T00:10:51;17.90;98.30
42031;DHT22;27709;52.036;5.906;2022-08-19T00:13:16;17.90;98.30
42031;DHT22;27709;52.036;5.906;2022-08-19T00:15:42;17.90;98.30
42031;DHT22;27709;52.036;5.906;2022-08-19T00:18:10;18.00;98.30
42031;DHT22;27709;52.036;5.906;2022-08-19T00:20:35;17.90;98.20
42031;DHT22;27709;52.036;5.906;2022-08-19T00:23:01;17.90;98.20
42031;DHT22;27709;52.036;5.906;2022-08-19T00:25:28;18.00;98.20
42031;DHT22;27709;52.036;5.906;2022-08-19T00:27:54;17.90;98.10
42031;DHT22;27709;52.036;5.906;2022-08-19T00:30:19;18.00;98.20
42031;DHT22;27709;52.036;5.906;2022-08-19T00:32:45;17.90;98.20
42031;DHT22;27709;52.036;5.906;2022-08-19T00:35:10;17.90;98.30
42031;DHT22;27709;52.036;5.906;2022-08-19T00:37:37;17.90;98.50
42031;DHT22;27709;52.036;5.906;2022-08-19T00:40:05;17.90;98.50
42031;DHT22;27709;52.036;5.906;2022-08-19T00:42:33;17.80;98.50
42031;DHT22;27709;52.036;5.906;2022-08-19T00:44:59;17.90;98.40
42031;DHT22;27709;52.036;5.906;2022-08-19T00:47:25;17.80;98.40
42031;DHT22;27709;52.036;5.906;2022-08-19T00:49:55;17.80;98.40
42031;DHT22;27709;52.036;5.906;2022-08-19T00:52:32;17.80;98.50
42031;DHT22;27709;52.036;5.906;2022-08-19T00:54:59;17.70;98.60
42031;DHT22;27709;52.036;5.906;2022-08-19T00:57:35;17.60;98.70
42031;DHT22;27709;52.036;5.906;2022-08-19T01:00:03;17.60;98.70
42031;DHT22;27709;52.036;5.906;2022-08-19T01:02:31;17.50;98.80
42031;DHT22;27709;52.036;5.906;2022-08-19T01:04:57;17.50;98.90
42031;DHT22;27709;52.036;5.906;2022-08-19T01:07:24;17.50;98.90
42031;DHT22;27709;52.036;5.906;2022-08-19T01:09:50;17.50;98.90
42031;DHT22;27709;52.036;5.906;2022-08-19T01:12:16;17.50;98.90
42031;DHT22;27709;52.036;5.906;2022-08-19T01:14:43;17.50;98.80
42031;DHT22;27709;52.036;5.906;2022-08-19T01:17:11;17.60;98.80
42031;DHT22;27709;52.036;5.906;2022-08-19T01:19:39;17.60;98.80
42031;DHT22;27709;52.036;5.906;2022-08-19T01:22:11;17.60;98.70
42031;DHT22;27709;52.036;5.906;2022-08-19T01:24:38;17.60;98.70
42031;DHT22;27709;52.036;5.906;2022-08-19T01:27:05;17.70;98.80
42031;DHT22;27709;52.036;5.906;2022-08-19T01:29:31;17.70;98.80
42031;DHT22;27709;52.036;5.906;2022-08-19T01:31:57;17.70;98.90
42031;DHT22;27709;52.036;5.906;2022-08-19T01:34:22;17.70;99.10
42031;DHT22;27709;52.036;5.906;2022-08-19T01:36:48;17.70;99.10
42031;DHT22;27709;52.036;5.906;2022-08-19T01:39:20;17.70;99.10
42031;DHT22;27709;52.036;5.906;2022-08-19T01:41:47;17.80;99.10
42031;DHT22;27709;52.036;5.906;2022-08-19T01:44:13;17.70;99.00
42031;DHT22;27709;52.036;5.906;2022-08-19T01:46:39;17.80;99.10
42031;DHT22;27709;52.036;5.906;2022-08-19T01:49:05;17.80;99.00
42031;DHT22;27709;52.036;5.906;2022-08-19T01:51:31;17.80;99.10
42031;DHT22;27709;52.036;5.906;2022-08-19T01:53:57;17.90;99.10
42031;DHT22;27709;52.036;5.906;2022-08-19T01:56:23;17.90;99.10
42031;DHT22;27709;52.036;5.906;2022-08-19T01:58:56;17.90;99.10
42031;DHT22;27709;52.036;5.906;2022-08-19T02:01:22;18.00;99.10
42031;DHT22;27709;52.036;5.906;2022-08-19T02:03:47;18.00;99.20
42031;DHT22;27709;52.036;5.906;2022-08-19T02:06:13;18.10;99.20
42031;DHT22;27709;52.036;5.906;2022-08-19T02:08:40;18.10;99.20
42031;DHT22;27709;52.036;5.906;2022-08-19T02:11:06;18.10;99.20
42031;DHT22;27709;52.036;5.906;2022-08-19T02:13:32;18.10;99.20
42031;DHT22;27709;52.036;5.906;2022-08-19T02:15:58;18.10;99.20
42031;DHT22;27709;52.036;5.906;2022-08-19T02:18:23;18.20;99.30
42031;DHT22;27709;52.036;5.906;2022-08-19T02:20:49;18.10;99.30
42031;DHT22;27709;52.036;5.906;2022-08-19T02:23:16;18.20;99.40
42031;DHT22;27709;52.036;5.906;2022-08-19T02:25:43;18.30;99.40
42031;DHT22;27709;52.036;5.906;2022-08-19T02:28:09;18.20;99.30
42031;DHT22;27709;52.036;5.906;2022-08-19T02:30:37;18.30;99.30
42031;DHT22;27709;52.036;5.906;2022-08-19T02:33:03;18.30;99.30
42031;DHT22;27709;52.036;5.906;2022-08-19T02:35:30;18.30;99.40
42031;DHT22;27709;52.036;5.906;2022-08-19T02:37:56;18.20;99.40
42031;DHT22;27709;52.036;5.906;2022-08-19T02:40:40;18.20;99.50
42031;DHT22;27709;52.036;5.906;2022-08-19T02:43:08;18.10;99.50
42031;DHT22;27709;52.036;5.906;2022-08-19T02:45:36;18.10;99.50
42031;DHT22;27709;52.036;5.906;2022-08-19T02:48:02;18.10;99.50
42031;DHT22;27709;52.036;5.906;2022-08-19T02:50:28;18.10;99.50
42031;DHT22;27709;52.036;5.906;2022-08-19T02:52:54;18.00;99.50
42031;DHT22;27709;52.036;5.906;2022-08-19T02:55:19;18.00;99.40
42031;DHT22;27709;52.036;5.906;2022-08-19T02:57:46;18.00;99.40
42031;DHT22;27709;52.036;5.906;2022-08-19T03:00:12;18.00;99.50
42031;DHT22;27709;52.036;5.906;2022-08-19T03:02:39;18.00;99.60
42031;DHT22;27709;52.036;5.906;2022-08-19T03:05:06;18.00;99.60
42031;DHT22;27709;52.036;5.906;2022-08-19T03:07:32;18.00;99.70
42031;DHT22;27709;52.036;5.906;2022-08-19T03:09:57;18.00;99.70
42031;DHT22;27709;52.036;5.906;2022-08-19T03:12:23;18.00;99.60
42031;DHT22;27709;52.036;5.906;2022-08-19T03:14:48;18.00;99.60
42031;DHT22;27709;52.036;5.906;2022-08-19T03:17:14;17.90;99.50
42031;DHT22;27709;52.036;5.906;2022-08-19T03:19:39;17.90;99.50
42031;DHT22;27709;52.036;5.906;2022-08-19T03:22:05;17.80;99.70
42031;DHT22;27709;52.036;5.906;2022-08-19T03:24:31;17.80;99.70
42031;DHT22;27709;52.036;5.906;2022-08-19T03:26:57;17.80;99.70
42031;DHT22;27709;52.036;5.906;2022-08-19T03:29:25;17.80;99.70
42031;DHT22;27709;52.036;5.906;2022-08-19T03:31:51;17.70;99.70
42031;DHT22;27709;52.036;5.906;2022-08-19T03:34:30;17.70;99.60
42031;DHT22;27709;52.036;5.906;2022-08-19T03:36:59;17.70;99.60
42031;DHT22;27709;52.036;5.906;2022-08-19T03:39:26;17.60;99.70
42031;DHT22;27709;52.036;5.906;2022-08-19T03:41:53;17.60;99.60
42031;DHT22;27709;52.036;5.906;2022-08-19T03:44:22;17.60;99.70
42031;DHT22;27709;52.036;5.906;2022-08-19T03:46:54;17.50;99.70
42031;DHT22;27709;52.036;5.906;2022-08-19T03:49:21;17.50;99.70
42031;DHT22;27709;52.036;5.906;2022-08-19T03:51:48;17.50;99.80
42031;DHT22;27709;52.036;5.906;2022-08-19T03:54:17;17.50;99.70
42031;DHT22;27709;52.036;5.906;2022-08-19T03:56:44;17.50;99.60
42031;DHT22;27709;52.036;5.906;2022-08-19T03:59:15;17.50;99.70
42031;DHT22;27709;52.036;5.906;2022-08-19T04:01:41;17.50;99.70
42031;DHT22;27709;52.036;5.906;2022-08-19T04:04:06;17.40;99.60
42031;DHT22;27709;52.036;5.906;2022-08-19T04:06:34;17.40;99.70
42031;DHT22;27709;52.036;5.906;2022-08-19T04:09:04;17.40;99.70
42031;DHT22;27709;52.036;5.906;2022-08-19T04:11:34;17.40;99.70
42031;DHT22;27709;52.036;5.906;2022-08-19T04:14:00;17.30;99.90
42031;DHT22;27709;52.036;5.906;2022-08-19T04:16:26;17.30;99.80
42031;DHT22;27709;52.036;5.906;2022-08-19T04:18:56;17.30;99.90
42031;DHT22;27709;52.036;5.906;2022-08-19T04:21:26;17.20;99.90
42031;DHT22;27709;52.036;5.906;2022-08-19T04:23:52;17.20;99.80
42031;DHT22;27709;52.036;5.906;2022-08-19T04:26:21;17.10;99.80
42031;DHT22;27709;52.036;5.906;2022-08-19T04:28:47;17.10;99.90
42031;DHT22;27709;52.036;5.906;2022-08-19T04:31:16;17.10;99.90
42031;DHT22;27709;52.036;5.906;2022-08-19T04:33:42;17.00;99.90
42031;DHT22;27709;52.036;5.906;2022-08-19T04:36:07;17.00;99.80
42031;DHT22;27709;52.036;5.906;2022-08-19T04:38:35;16.90;99.90
42031;DHT22;27709;52.036;5.906;2022-08-19T04:41:02;16.90;99.80
42031;DHT22;27709;52.036;5.906;2022-08-19T04:43:50;16.90;99.70
42031;DHT22;27709;52.036;5.906;2022-08-19T04:46:16;16.90;99.70
42031;DHT22;27709;52.036;5.906;2022-08-19T04:48:45;16.90;99.70
42031;DHT22;27709;52.036;5.906;2022-08-19T04:51:12;16.90;99.80
42031;DHT22;27709;52.036;5.906;2022-08-19T04:53:40;16.90;99.70
42031;DHT22;27709;52.036;5.906;2022-08-19T04:56:10;16.90;99.60
42031;DHT22;27709;52.036;5.906;2022-08-19T04:58:41;16.90;99.60
42031;DHT22;27709;52.036;5.906;2022-08-19T05:01:08;16.80;99.70
42031;DHT22;27709;52.036;5.906;2022-08-19T05:03:37;16.80;99.80
42031;DHT22;27709;52.036;5.906;2022-08-19T05:06:09;16.80;99.80
42031;DHT22;27709;52.036;5.906;2022-08-19T05:08:37;16.80;99.70
42031;DHT22;27709;52.036;5.906;2022-08-19T05:11:20;16.70;99.70
42031;DHT22;27709;52.036;5.906;2022-08-19T05:13:48;16.70;99.80
42031;DHT22;27709;52.036;5.906;2022-08-19T05:16:16;16.70;99.80
42031;DHT22;27709;52.036;5.906;2022-08-19T05:18:43;16.80;99.80
42031;DHT22;27709;52.036;5.906;2022-08-19T05:21:28;16.80;99.70
42031;DHT22;27709;52.036;5.906;2022-08-19T05:24:13;16.80;99.60
42031;DHT22;27709;52.036;5.906;2022-08-19T05:26:43;16.90;99.60
42031;DHT22;27709;52.036;5.906;2022-08-19T05:29:12;16.90;99.50
42031;DHT22;27709;52.036;5.906;2022-08-19T05:31:38;16.90;99.50
42031;DHT22;27709;52.036;5.906;2022-08-19T05:34:05;16.90;99.50
42031;DHT22;27709;52.036;5.906;2022-08-19T05:36:35;17.00;99.50
42031;DHT22;27709;52.036;5.906;2022-08-19T05:39:10;17.00;99.50
42031;DHT22;27709;52.036;5.906;2022-08-19T05:41:37;17.00;99.60
42031;DHT22;27709;52.036;5.906;2022-08-19T05:44:06;17.10;99.60
42031;DHT22;27709;52.036;5.906;2022-08-19T05:46:32;17.10;99.60
42031;DHT22;27709;52.036;5.906;2022-08-19T05:48:59;17.10;99.60
42031;DHT22;27709;52.036;5.906;2022-08-19T05:51:25;17.10;99.60
42031;DHT22;27709;52.036;5.906;2022-08-19T05:53:52;17.20;99.90
42031;DHT22;27709;52.036;5.906;2022-08-19T05:56:18;17.20;99.80
42031;DHT22;27709;52.036;5.906;2022-08-19T05:58:45;17.20;99.80
42031;DHT22;27709;52.036;5.906;2022-08-19T06:01:14;17.30;99.80
42031;DHT22;27709;52.036;5.906;2022-08-19T06:03:40;17.40;99.80
42031;DHT22;27709;52.036;5.906;2022-08-19T06:06:10;17.60;99.80
42031;DHT22;27709;52.036;5.906;2022-08-19T06:08:37;17.70;99.60
42031;DHT22;27709;52.036;5.906;2022-08-19T06:11:43;17.80;99.50
42031;DHT22;27709;52.036;5.906;2022-08-19T06:14:14;18.00;99.30
42031;DHT22;27709;52.036;5.906;2022-08-19T06:16:42;18.10;99.20
42031;DHT22;27709;52.036;5.906;2022-08-19T06:19:11;18.20;99.10
42031;DHT22;27709;52.036;5.906;2022-08-19T06:21:39;18.30;99.20
42031;DHT22;27709;52.036;5.906;2022-08-19T06:24:12;18.40;99.30
42031;DHT22;27709;52.036;5.906;2022-08-19T06:26:40;18.60;99.70
42031;DHT22;27709;52.036;5.906;2022-08-19T06:29:08;19.10;99.90
42031;DHT22;27709;52.036;5.906;2022-08-19T06:31:34;19.50;99.90
42031;DHT22;27709;52.036;5.906;2022-08-19T06:34:02;20.10;99.80
42031;DHT22;27709;52.036;5.906;2022-08-19T06:36:40;20.80;99.20
42031;DHT22;27709;52.036;5.906;2022-08-19T06:39:10;21.50;98.40
42031;DHT22;27709;52.036;5.906;2022-08-19T06:41:42;22.10;97.50
42031;DHT22;27709;52.036;5.906;2022-08-19T06:44:08;22.60;96.40
42031;DHT22;27709;52.036;5.906;2022-08-19T06:46:35;23.10;95.60
42031;DHT22;27709;52.036;5.906;2022-08-19T06:49:01;23.60;94.60
42031;DHT22;27709;52.036;5.906;2022-08-19T06:51:27;23.90;94.00
42031;DHT22;27709;52.036;5.906;2022-08-19T06:53:54;24.10;93.50
42031;DHT22;27709;52.036;5.906;2022-08-19T06:56:26;24.50;93.50
42031;DHT22;27709;52.036;5.906;2022-08-19T06:58:59;24.90;92.90
42031;DHT22;27709;52.036;5.906;2022-08-19T07:01:25;25.00;92.40
42031;DHT22;27709;52.036;5.906;2022-08-19T07:03:51;25.10;92.20
42031;DHT22;27709;52.036;5.906;2022-08-19T07:06:18;25.40;91.90
42031;DHT22;27709;52.036;5.906;2022-08-19T07:08:45;25.50;91.50
42031;DHT22;27709;52.036;5.906;2022-08-19T07:11:14;25.90;91.30
42031;DHT22;27709;52.036;5.906;2022-08-19T07:13:40;26.30;90.70
42031;DHT22;27709;52.036;5.906;2022-08-19T07:16:11;26.50;89.80
42031;DHT22;27709;52.036;5.906;2022-08-19T07:18:38;26.30;89.10
42031;DHT22;27709;52.036;5.906;2022-08-19T07:21:06;25.80;90.00
42031;DHT22;27709;52.036;5.906;2022-08-19T07:23:32;25.30;90.50
42031;DHT22;27709;52.036;5.906;2022-08-19T07:26:03;25.00;90.90
42031;DHT22;27709;52.036;5.906;2022-08-19T07:28:29;24.60;91.50
42031;DHT22;27709;52.036;5.906;2022-08-19T07:30:56;24.10;92.10
42031;DHT22;27709;52.036;5.906;2022-08-19T07:33:21;23.80;92.70
42031;DHT22;27709;52.036;5.906;2022-08-19T07:35:47;23.50;93.20
42031;DHT22;27709;52.036;5.906;2022-08-19T07:38:12;23.40;93.40
42031;DHT22;27709;52.036;5.906;2022-08-19T07:40:38;23.40;93.50
42031;DHT22;27709;52.036;5.906;2022-08-19T07:43:06;23.40;93.50
42031;DHT22;27709;52.036;5.906;2022-08-19T07:45:32;23.40;93.70
42031;DHT22;27709;52.036;5.906;2022-08-19T07:47:57;23.30;93.70
42031;DHT22;27709;52.036;5.906;2022-08-19T07:50:24;23.30;93.70
42031;DHT22;27709;52.036;5.906;2022-08-19T07:52:50;23.40;93.60
42031;DHT22;27709;52.036;5.906;2022-08-19T07:55:23;23.50;93.40
42031;DHT22;27709;52.036;5.906;2022-08-19T07:57:49;23.60;93.40
42031;DHT22;27709;52.036;5.906;2022-08-19T08:00:15;23.60;93.10
42031;DHT22;27709;52.036;5.906;2022-08-19T08:02:41;23.70;93.00
42031;DHT22;27709;52.036;5.906;2022-08-19T08:05:08;23.80;92.80
42031;DHT22;27709;52.036;5.906;2022-08-19T08:07:53;24.10;92.50
42031;DHT22;27709;52.036;5.906;2022-08-19T08:10:36;24.60;91.80
42031;DHT22;27709;52.036;5.906;2022-08-19T08:13:03;25.00;91.30
42031;DHT22;27709;52.036;5.906;2022-08-19T08:15:30;25.60;90.80
42031;DHT22;27709;52.036;5.906;2022-08-19T08:17:55;26.50;90.00
42031;DHT22;27709;52.036;5.906;2022-08-19T08:20:23;27.30;87.80
42031;DHT22;27709;52.036;5.906;2022-08-19T08:22:48;27.90;85.70
42031;DHT22;27709;52.036;5.906;2022-08-19T08:25:34;28.40;83.10
42031;DHT22;27709;52.036;5.906;2022-08-19T08:28:01;28.70;81.20
42031;DHT22;27709;52.036;5.906;2022-08-19T08:30:28;28.70;80.70
42031;DHT22;27709;52.036;5.906;2022-08-19T08:32:54;28.90;80.20
42031;DHT22;27709;52.036;5.906;2022-08-19T08:35:22;29.30;79.50
42031;DHT22;27709;52.036;5.906;2022-08-19T08:37:49;29.70;77.50
42031;DHT22;27709;52.036;5.906;2022-08-19T08:43:17;30.00;74.50
42031;DHT22;27709;52.036;5.906;2022-08-19T08:45:48;30.10;75.00
42031;DHT22;27709;52.036;5.906;2022-08-19T08:48:44;30.30;73.30
42031;DHT22;27709;52.036;5.906;2022-08-19T08:51:18;30.40;73.10
42031;DHT22;27709;52.036;5.906;2022-08-19T08:53:49;30.70;72.10
42031;DHT22;27709;52.036;5.906;2022-08-19T08:56:16;30.80;70.50
42031;DHT22;27709;52.036;5.906;2022-08-19T09:01:38;31.00;69.80
42031;DHT22;27709;52.036;5.906;2022-08-19T09:04:06;31.10;68.60
42031;DHT22;27709;52.036;5.906;2022-08-19T09:06:40;31.40;68.50
42031;DHT22;27709;52.036;5.906;2022-08-19T09:09:20;31.60;66.40
42031;DHT22;27709;52.036;5.906;2022-08-19T09:12:13;31.60;65.60
42031;DHT22;27709;52.036;5.906;2022-08-19T09:14:50;31.80;66.00
42031;DHT22;27709;52.036;5.906;2022-08-19T09:17:21;32.00;64.60
42031;DHT22;27709;52.036;5.906;2022-08-19T09:20:06;32.00;62.60
42031;DHT22;27709;52.036;5.906;2022-08-19T09:22:34;31.90;63.70
42031;DHT22;27709;52.036;5.906;2022-08-19T09:25:01;32.00;63.20
42031;DHT22;27709;52.036;5.906;2022-08-19T09:27:28;32.00;63.50
42031;DHT22;27709;52.036;5.906;2022-08-19T09:29:54;32.00;63.80
42031;DHT22;27709;52.036;5.906;2022-08-19T09:32:21;32.10;63.90
42031;DHT22;27709;52.036;5.906;2022-08-19T09:34:46;32.30;63.50
42031;DHT22;27709;52.036;5.906;2022-08-19T09:37:12;32.30;63.40
42031;DHT22;27709;52.036;5.906;2022-08-19T09:39:39;32.40;63.00
42031;DHT22;27709;52.036;5.906;2022-08-19T09:42:08;32.20;63.10
42031;DHT22;27709;52.036;5.906;2022-08-19T09:44:40;31.80;63.10
42031;DHT22;27709;52.036;5.906;2022-08-19T09:47:06;31.30;63.80
42031;DHT22;27709;52.036;5.906;2022-08-19T09:49:32;31.20;64.90
42031;DHT22;27709;52.036;5.906;2022-08-19T09:51:58;31.10;64.60
42031;DHT22;27709;52.036;5.906;2022-08-19T09:54:24;30.80;65.30
42031;DHT22;27709;52.036;5.906;2022-08-19T09:56:50;30.40;66.40
42031;DHT22;27709;52.036;5.906;2022-08-19T09:59:16;30.20;67.30
42031;DHT22;27709;52.036;5.906;2022-08-19T10:01:42;30.30;67.30
42031;DHT22;27709;52.036;5.906;2022-08-19T10:04:07;30.50;67.40
42031;DHT22;27709;52.036;5.906;2022-08-19T10:06:38;30.80;65.90
42031;DHT22;27709;52.036;5.906;2022-08-19T10:09:06;30.90;64.70
42031;DHT22;27709;52.036;5.906;2022-08-19T10:11:33;31.00;63.70
42031;DHT22;27709;52.036;5.906;2022-08-19T10:13:59;31.00;64.00
42031;DHT22;27709;52.036;5.906;2022-08-19T10:16:26;31.10;63.40
42031;DHT22;27709;52.036;5.906;2022-08-19T10:18:52;31.20;63.90
42031;DHT22;27709;52.036;5.906;2022-08-19T10:21:23;31.20;63.60
42031;DHT22;27709;52.036;5.906;2022-08-19T10:23:51;31.30;63.50
42031;DHT22;27709;52.036;5.906;2022-08-19T10:26:20;31.40;62.90
42031;DHT22;27709;52.036;5.906;2022-08-19T10:28:46;31.40;62.70
42031;DHT22;27709;52.036;5.906;2022-08-19T10:31:17;31.50;63.00
42031;DHT22;27709;52.036;5.906;2022-08-19T10:33:45;31.60;62.00
42031;DHT22;27709;52.036;5.906;2022-08-19T10:36:19;31.40;62.00
42031;DHT22;27709;52.036;5.906;2022-08-19T10:38:48;31.30;62.70
42031;DHT22;27709;52.036;5.906;2022-08-19T10:41:18;31.40;62.50
42031;DHT22;27709;52.036;5.906;2022-08-19T10:43:44;31.50;62.70
42031;DHT22;27709;52.036;5.906;2022-08-19T10:46:13;31.50;62.80
42031;DHT22;27709;52.036;5.906;2022-08-19T10:48:40;31.50;63.50
42031;DHT22;27709;52.036;5.906;2022-08-19T10:51:06;31.50;62.20
42031;DHT22;27709;52.036;5.906;2022-08-19T10:53:51;31.40;62.60
42031;DHT22;27709;52.036;5.906;2022-08-19T10:56:17;31.30;63.20
42031;DHT22;27709;52.036;5.906;2022-08-19T10:59:03;31.30;63.30
42031;DHT22;27709;52.036;5.906;2022-08-19T11:01:30;31.40;62.80
42031;DHT22;27709;52.036;5.906;2022-08-19T11:03:59;31.20;62.40
42031;DHT22;27709;52.036;5.906;2022-08-19T11:06:24;31.20;63.00
42031;DHT22;27709;52.036;5.906;2022-08-19T11:08:51;31.20;63.20
42031;DHT22;27709;52.036;5.906;2022-08-19T11:11:17;31.20;63.70
42031;DHT22;27709;52.036;5.906;2022-08-19T11:13:44;31.30;63.00
42031;DHT22;27709;52.036;5.906;2022-08-19T11:16:17;31.40;62.50
42031;DHT22;27709;52.036;5.906;2022-08-19T11:18:45;31.40;62.50
42031;DHT22;27709;52.036;5.906;2022-08-19T11:21:21;31.30;62.50
42031;DHT22;27709;52.036;5.906;2022-08-19T11:23:48;31.20;63.20
42031;DHT22;27709;52.036;5.906;2022-08-19T11:26:14;31.40;63.20
42031;DHT22;27709;52.036;5.906;2022-08-19T11:28:41;31.40;63.20
42031;DHT22;27709;52.036;5.906;2022-08-19T11:31:15;31.30;62.50
42031;DHT22;27709;52.036;5.906;2022-08-19T11:33:41;31.20;62.80
42031;DHT22;27709;52.036;5.906;2022-08-19T11:36:07;31.30;62.80
42031;DHT22;27709;52.036;5.906;2022-08-19T11:38:34;31.30;63.00
42031;DHT22;27709;52.036;5.906;2022-08-19T11:41:04;31.40;62.80
42031;DHT22;27709;52.036;5.906;2022-08-19T11:43:30;31.60;63.10
42031;DHT22;27709;52.036;5.906;2022-08-19T11:45:57;31.70;62.10
42031;DHT22;27709;52.036;5.906;2022-08-19T11:48:24;31.80;62.20
42031;DHT22;27709;52.036;5.906;2022-08-19T11:50:53;31.80;61.60
42031;DHT22;27709;52.036;5.906;2022-08-19T11:53:22;31.70;61.70
42031;DHT22;27709;52.036;5.906;2022-08-19T11:55:48;31.70;61.80
42031;DHT22;27709;52.036;5.906;2022-08-19T11:58:16;31.60;60.80
42031;DHT22;27709;52.036;5.906;2022-08-19T12:00:42;31.50;60.90
42031;DHT22;27709;52.036;5.906;2022-08-19T12:03:10;31.30;61.70
42031;DHT22;27709;52.036;5.906;2022-08-19T12:05:37;31.20;62.20
42031;DHT22;27709;52.036;5.906;2022-08-19T12:08:03;31.30;62.50
42031;DHT22;27709;52.036;5.906;2022-08-19T12:10:29;31.30;61.70
42031;DHT22;27709;52.036;5.906;2022-08-19T12:12:55;31.30;61.90
42031;DHT22;27709;52.036;5.906;2022-08-19T12:15:20;31.40;61.80
42031;DHT22;27709;52.036;5.906;2022-08-19T12:17:46;31.60;61.10
42031;DHT22;27709;52.036;5.906;2022-08-19T12:20:13;31.40;60.90
42031;DHT22;27709;52.036;5.906;2022-08-19T12:22:41;31.10;61.60
42031;DHT22;27709;52.036;5.906;2022-08-19T12:25:10;30.80;62.40
42031;DHT22;27709;52.036;5.906;2022-08-19T12:27:35;30.50;62.80
42031;DHT22;27709;52.036;5.906;2022-08-19T12:30:03;30.30;63.00
42031;DHT22;27709;52.036;5.906;2022-08-19T12:32:29;30.20;63.40
42031;DHT22;27709;52.036;5.906;2022-08-19T12:34:54;30.20;63.30
42031;DHT22;27709;52.036;5.906;2022-08-19T12:37:20;30.30;63.30
42031;DHT22;27709;52.036;5.906;2022-08-19T12:39:46;30.50;63.40
42031;DHT22;27709;52.036;5.906;2022-08-19T12:42:12;30.60;63.60
42031;DHT22;27709;52.036;5.906;2022-08-19T12:44:41;30.70;63.00
42031;DHT22;27709;52.036;5.906;2022-08-19T12:47:10;30.60;63.00
42031;DHT22;27709;52.036;5.906;2022-08-19T12:49:37;30.70;63.40
42031;DHT22;27709;52.036;5.906;2022-08-19T12:52:05;30.70;63.40
42031;DHT22;27709;52.036;5.906;2022-08-19T12:54:31;30.60;63.30
42031;DHT22;27709;52.036;5.906;2022-08-19T12:56:57;30.50;63.60
42031;DHT22;27709;52.036;5.906;2022-08-19T12:59:23;30.40;64.00
42031;DHT22;27709;52.036;5.906;2022-08-19T13:01:49;30.50;64.30
42031;DHT22;27709;52.036;5.906;2022-08-19T13:04:14;30.70;64.40
42031;DHT22;27709;52.036;5.906;2022-08-19T13:06:41;30.70;63.80
42031;DHT22;27709;52.036;5.906;2022-08-19T13:09:07;30.80;63.90
42031;DHT22;27709;52.036;5.906;2022-08-19T13:11:33;30.70;63.10
42031;DHT22;27709;52.036;5.906;2022-08-19T13:14:00;30.60;64.10
42031;DHT22;27709;52.036;5.906;2022-08-19T13:16:26;30.50;63.90
42031;DHT22;27709;52.036;5.906;2022-08-19T13:18:55;30.40;64.00
42031;DHT22;27709;52.036;5.906;2022-08-19T13:21:33;30.20;64.50
42031;DHT22;27709;52.036;5.906;2022-08-19T13:23:59;29.90;65.10
42031;DHT22;27709;52.036;5.906;2022-08-19T13:26:52;29.80;65.70
42031;DHT22;27709;52.036;5.906;2022-08-19T13:29:20;29.90;65.40
42031;DHT22;27709;52.036;5.906;2022-08-19T13:32:09;30.00;65.20
42031;DHT22;27709;52.036;5.906;2022-08-19T13:34:54;29.90;65.00
42031;DHT22;27709;52.036;5.906;2022-08-19T13:37:19;30.00;65.30
42031;DHT22;27709;52.036;5.906;2022-08-19T13:40:05;30.10;65.10
42031;DHT22;27709;52.036;5.906;2022-08-19T13:42:31;30.10;65.00
42031;DHT22;27709;52.036;5.906;2022-08-19T13:44:57;30.30;64.90
42031;DHT22;27709;52.036;5.906;2022-08-19T13:47:27;30.20;65.00
42031;DHT22;27709;52.036;5.906;2022-08-19T13:49:52;30.20;65.40
42031;DHT22;27709;52.036;5.906;2022-08-19T13:52:18;30.20;65.50
42031;DHT22;27709;52.036;5.906;2022-08-19T13:54:43;30.10;65.70
42031;DHT22;27709;52.036;5.906;2022-08-19T13:57:09;29.90;65.90
42031;DHT22;27709;52.036;5.906;2022-08-19T13:59:35;29.80;66.40
42031;DHT22;27709;52.036;5.906;2022-08-19T14:02:00;29.60;66.90
42031;DHT22;27709;52.036;5.906;2022-08-19T14:04:26;29.50;67.50
42031;DHT22;27709;52.036;5.906;2022-08-19T14:06:52;29.30;67.70
42031;DHT22;27709;52.036;5.906;2022-08-19T14:09:17;29.10;68.20
42031;DHT22;27709;52.036;5.906;2022-08-19T14:11:43;29.00;68.60
42031;DHT22;27709;52.036;5.906;2022-08-19T14:14:10;28.80;69.20
42031;DHT22;27709;52.036;5.906;2022-08-19T14:16:37;28.70;69.60
42031;DHT22;27709;52.036;5.906;2022-08-19T14:19:03;28.60;70.20
42031;DHT22;27709;52.036;5.906;2022-08-19T14:21:29;28.50;70.80
42031;DHT22;27709;52.036;5.906;2022-08-19T14:23:57;28.30;71.30
42031;DHT22;27709;52.036;5.906;2022-08-19T14:26:24;28.30;72.00
42031;DHT22;27709;52.036;5.906;2022-08-19T14:28:49;28.20;72.40
42031;DHT22;27709;52.036;5.906;2022-08-19T14:31:16;28.10;73.00
42031;DHT22;27709;52.036;5.906;2022-08-19T14:33:47;27.90;73.50
42031;DHT22;27709;52.036;5.906;2022-08-19T14:36:13;27.90;74.20
42031;DHT22;27709;52.036;5.906;2022-08-19T14:38:39;27.80;74.40
42031;DHT22;27709;52.036;5.906;2022-08-19T14:41:14;27.80;74.50
42031;DHT22;27709;52.036;5.906;2022-08-19T14:43:41;27.70;74.60
42031;DHT22;27709;52.036;5.906;2022-08-19T14:46:07;27.60;74.90
42031;DHT22;27709;52.036;5.906;2022-08-19T14:48:33;27.50;75.00
42031;DHT22;27709;52.036;5.906;2022-08-19T14:50:59;27.50;75.00
42031;DHT22;27709;52.036;5.906;2022-08-19T14:53:25;27.50;75.60
42031;DHT22;27709;52.036;5.906;2022-08-19T14:55:50;27.50;75.90
42031;DHT22;27709;52.036;5.906;2022-08-19T14:58:16;27.50;75.90
42031;DHT22;27709;52.036;5.906;2022-08-19T15:00:42;27.50;75.70
42031;DHT22;27709;52.036;5.906;2022-08-19T15:03:07;27.50;75.90
42031;DHT22;27709;52.036;5.906;2022-08-19T15:05:33;27.40;76.00
42031;DHT22;27709;52.036;5.906;2022-08-19T15:08:03;27.30;76.50
42031;DHT22;27709;52.036;5.906;2022-08-19T15:10:28;27.20;76.90
42031;DHT22;27709;52.036;5.906;2022-08-19T15:12:54;27.00;78.40
42031;DHT22;27709;52.036;5.906;2022-08-19T15:15:20;26.80;81.10
42031;DHT22;27709;52.036;5.906;2022-08-19T15:17:57;26.50;82.20
42031;DHT22;27709;52.036;5.906;2022-08-19T15:20:28;26.10;85.10
42031;DHT22;27709;52.036;5.906;2022-08-19T15:22:54;25.70;86.60
42031;DHT22;27709;52.036;5.906;2022-08-19T15:25:19;25.40;88.30
42031;DHT22;27709;52.036;5.906;2022-08-19T15:27:50;25.20;89.60
42031;DHT22;27709;52.036;5.906;2022-08-19T15:30:24;25.10;90.30
42031;DHT22;27709;52.036;5.906;2022-08-19T15:32:50;25.00;90.80
42031;DHT22;27709;52.036;5.906;2022-08-19T15:35:18;25.00;91.60
42031;DHT22;27709;52.036;5.906;2022-08-19T15:37:47;25.00;91.80
42031;DHT22;27709;52.036;5.906;2022-08-19T15:40:13;25.00;92.00
42031;DHT22;27709;52.036;5.906;2022-08-19T15:42:39;25.10;92.30